sensor_id;sensor_type;location;lat;lon;timestamp;P1;durP1;ratioP1;P2;durP2;ratioP2
19179;SDS011;9722;48.754;8.868;2023-03-22T00:02:33;1.90;;;1.80;;
19179;SDS011;9722;48.754;8.868;2023-03-22T00:05:56;2.63;;;1.40;;
19179;SDS011;9722;48.754;8.868;2023-03-22T00:09:17;1.90;;;1.80;;
19179;SDS011;9722;48.754;8.868;2023-03-22T00:12:37;1.57;;;1.47;;
19179;SDS011;9722;48.754;8.868;2023-03-22T00:15:58;1.53;;;1.43;;
19179;SDS011;9722;48.754;8.868;2023-03-22T00:19:21;1.33;;;1.23;;
19179;SDS011;9722;48.754;8.868;2023-03-22T00:22:42;1.63;;;1.53;;
19179;SDS011;9722;48.754;8.868;2023-03-22T00:26:02;1.50;;;1.40;;
19179;SDS011;9722;48.754;8.868;2023-03-22T00:29:23;1.73;;;1.50;;
19179;SDS011;9722;48.754;8.868;2023-03-22T00:32:43;1.57;;;1.17;;
19179;SDS011;9722;48.754;8.868;2023-03-22T00:36:08;1.40;;;1.30;;
19179;SDS011;9722;48.754;8.868;2023-03-22T00:39:30;1.43;;;1.33;;
19179;SDS011;9722;48.754;8.868;2023-03-22T00:42:51;1.40;;;1.30;;
19179;SDS011;9722;48.754;8.868;2023-03-22T00:46:12;1.30;;;1.20;;
19179;SDS011;9722;48.754;8.868;2023-03-22T00:49:33;1.67;;;1.57;;
19179;SDS011;9722;48.754;8.868;2023-03-22T00:52:54;1.93;;;1.30;;
19179;SDS011;9722;48.754;8.868;2023-03-22T00:56:14;1.57;;;1.47;;
19179;SDS011;9722;48.754;8.868;2023-03-22T00:59:35;1.30;;;1.20;;
19179;SDS011;9722;48.754;8.868;2023-03-22T01:02:58;1.93;;;1.77;;
19179;SDS011;9722;48.754;8.868;2023-03-22T01:06:23;1.60;;;1.50;;
19179;SDS011;9722;48.754;8.868;2023-03-22T01:09:44;1.83;;;1.73;;
19179;SDS011;9722;48.754;8.868;2023-03-22T01:13:04;1.63;;;1.53;;
19179;SDS011;9722;48.754;8.868;2023-03-22T01:16:25;2.13;;;1.73;;
19179;SDS011;9722;48.754;8.868;2023-03-22T01:19:46;2.80;;;1.47;;
19179;SDS011;9722;48.754;8.868;2023-03-22T01:23:06;2.73;;;2.10;;
19179;SDS011;9722;48.754;8.868;2023-03-22T01:26:27;2.17;;;1.60;;
19179;SDS011;9722;48.754;8.868;2023-03-22T01:29:48;2.40;;;1.87;;
19179;SDS011;9722;48.754;8.868;2023-03-22T01:33:08;2.33;;;1.90;;
19179;SDS011;9722;48.754;8.868;2023-03-22T01:36:29;1.80;;;1.70;;
19179;SDS011;9722;48.754;8.868;2023-03-22T01:39:49;2.03;;;1.50;;
19179;SDS011;9722;48.754;8.868;2023-03-22T01:43:13;2.77;;;1.77;;
19179;SDS011;9722;48.754;8.868;2023-03-22T01:46:36;1.83;;;1.73;;
19179;SDS011;9722;48.754;8.868;2023-03-22T01:49:56;2.00;;;1.80;;
19179;SDS011;9722;48.754;8.868;2023-03-22T01:53:17;2.40;;;1.50;;
19179;SDS011;9722;48.754;8.868;2023-03-22T01:56:39;1.63;;;1.53;;
19179;SDS011;9722;48.754;8.868;2023-03-22T02:00:00;1.90;;;1.80;;
19179;SDS011;9722;48.754;8.868;2023-03-22T02:03:31;1.90;;;1.70;;
19179;SDS011;9722;48.754;8.868;2023-03-22T02:07:13;1.87;;;1.77;;
19179;SDS011;9722;48.754;8.868;2023-03-22T02:10:37;2.17;;;1.90;;
19179;SDS011;9722;48.754;8.868;2023-03-22T02:14:19;2.20;;;2.00;;
19179;SDS011;9722;48.754;8.868;2023-03-22T02:17:48;2.00;;;1.90;;
19179;SDS011;9722;48.754;8.868;2023-03-22T02:21:46;1.70;;;1.60;;
19179;SDS011;9722;48.754;8.868;2023-03-22T02:33:14;2.00;;;1.80;;
19179;SDS011;9722;48.754;8.868;2023-03-22T02:40:39;1.90;;;1.70;;
19179;SDS011;9722;48.754;8.868;2023-03-22T02:47:52;1.80;;;1.70;;
19179;SDS011;9722;48.754;8.868;2023-03-22T02:51:27;1.77;;;1.67;;
19179;SDS011;9722;48.754;8.868;2023-03-22T02:55:05;2.30;;;1.80;;
19179;SDS011;9722;48.754;8.868;2023-03-22T02:58:46;4.13;;;1.80;;
19179;SDS011;9722;48.754;8.868;2023-03-22T03:02:13;4.57;;;2.30;;
19179;SDS011;9722;48.754;8.868;2023-03-22T03:05:38;2.97;;;2.13;;
19179;SDS011;9722;48.754;8.868;2023-03-22T03:09:03;2.17;;;1.97;;
19179;SDS011;9722;48.754;8.868;2023-03-22T03:12:26;1.90;;;1.63;;
19179;SDS011;9722;48.754;8.868;2023-03-22T03:15:51;1.67;;;1.57;;
19179;SDS011;9722;48.754;8.868;2023-03-22T03:22:54;2.20;;;2.00;;
19179;SDS011;9722;48.754;8.868;2023-03-22T03:33:31;1.90;;;1.80;;
19179;SDS011;9722;48.754;8.868;2023-03-22T03:36:58;2.07;;;1.80;;
19179;SDS011;9722;48.754;8.868;2023-03-22T03:40:25;2.10;;;1.90;;
19179;SDS011;9722;48.754;8.868;2023-03-22T03:43:50;2.70;;;1.90;;
19179;SDS011;9722;48.754;8.868;2023-03-22T03:47:13;2.30;;;2.13;;
19179;SDS011;9722;48.754;8.868;2023-03-22T03:50:34;1.90;;;1.70;;
19179;SDS011;9722;48.754;8.868;2023-03-22T03:53:55;2.43;;;1.97;;
19179;SDS011;9722;48.754;8.868;2023-03-22T03:57:15;1.90;;;1.77;;
19179;SDS011;9722;48.754;8.868;2023-03-22T04:00:36;1.80;;;1.70;;
19179;SDS011;9722;48.754;8.868;2023-03-22T04:03:57;1.70;;;1.60;;
19179;SDS011;9722;48.754;8.868;2023-03-22T04:07:17;1.77;;;1.67;;
19179;SDS011;9722;48.754;8.868;2023-03-22T04:10:38;2.10;;;1.90;;
19179;SDS011;9722;48.754;8.868;2023-03-22T04:13:59;2.10;;;1.63;;
19179;SDS011;9722;48.754;8.868;2023-03-22T04:17:20;2.10;;;1.90;;
19179;SDS011;9722;48.754;8.868;2023-03-22T04:20:40;2.03;;;1.77;;
19179;SDS011;9722;48.754;8.868;2023-03-22T04:24:04;1.83;;;1.73;;
19179;SDS011;9722;48.754;8.868;2023-03-22T04:27:25;2.57;;;1.90;;
19179;SDS011;9722;48.754;8.868;2023-03-22T04:30:46;2.17;;;1.97;;
19179;SDS011;9722;48.754;8.868;2023-03-22T04:34:10;1.80;;;1.70;;
19179;SDS011;9722;48.754;8.868;2023-03-22T04:37:31;3.23;;;2.17;;
19179;SDS011;9722;48.754;8.868;2023-03-22T04:40:52;2.03;;;1.83;;
19179;SDS011;9722;48.754;8.868;2023-03-22T04:44:14;1.87;;;1.77;;
19179;SDS011;9722;48.754;8.868;2023-03-22T04:47:34;2.43;;;2.00;;
19179;SDS011;9722;48.754;8.868;2023-03-22T04:50:55;1.90;;;1.80;;
19179;SDS011;9722;48.754;8.868;2023-03-22T04:54:16;1.73;;;1.63;;
19179;SDS011;9722;48.754;8.868;2023-03-22T04:57:36;2.20;;;1.87;;
19179;SDS011;9722;48.754;8.868;2023-03-22T05:00:57;2.27;;;1.70;;
19179;SDS011;9722;48.754;8.868;2023-03-22T05:04:17;2.87;;;2.23;;
19179;SDS011;9722;48.754;8.868;2023-03-22T05:07:38;2.20;;;2.00;;
19179;SDS011;9722;48.754;8.868;2023-03-22T05:11:03;3.40;;;1.97;;
19179;SDS011;9722;48.754;8.868;2023-03-22T05:14:28;2.27;;;1.73;;
19179;SDS011;9722;48.754;8.868;2023-03-22T05:17:49;2.40;;;2.20;;
19179;SDS011;9722;48.754;8.868;2023-03-22T05:21:14;2.43;;;2.03;;
19179;SDS011;9722;48.754;8.868;2023-03-22T05:24:36;2.50;;;2.17;;
19179;SDS011;9722;48.754;8.868;2023-03-22T05:27:56;2.90;;;2.20;;
19179;SDS011;9722;48.754;8.868;2023-03-22T05:31:20;2.53;;;2.10;;
19179;SDS011;9722;48.754;8.868;2023-03-22T05:34:41;2.23;;;2.03;;
19179;SDS011;9722;48.754;8.868;2023-03-22T05:38:04;2.80;;;2.03;;
19179;SDS011;9722;48.754;8.868;2023-03-22T05:41:25;2.67;;;2.43;;
19179;SDS011;9722;48.754;8.868;2023-03-22T05:44:46;2.47;;;2.27;;
19179;SDS011;9722;48.754;8.868;2023-03-22T05:48:06;2.50;;;2.40;;
19179;SDS011;9722;48.754;8.868;2023-03-22T05:51:27;3.03;;;2.70;;
19179;SDS011;9722;48.754;8.868;2023-03-22T05:54:48;2.77;;;2.57;;
19179;SDS011;9722;48.754;8.868;2023-03-22T05:58:09;2.27;;;2.07;;
19179;SDS011;9722;48.754;8.868;2023-03-22T06:01:29;3.87;;;2.27;;
19179;SDS011;9722;48.754;8.868;2023-03-22T06:04:50;4.63;;;2.23;;
19179;SDS011;9722;48.754;8.868;2023-03-22T06:08:11;2.20;;;2.07;;
19179;SDS011;9722;48.754;8.868;2023-03-22T06:11:31;3.40;;;2.50;;
19179;SDS011;9722;48.754;8.868;2023-03-22T06:14:54;2.63;;;1.70;;
19179;SDS011;9722;48.754;8.868;2023-03-22T06:18:15;3.33;;;2.20;;
19179;SDS011;9722;48.754;8.868;2023-03-22T06:21:35;4.70;;;2.27;;
19179;SDS011;9722;48.754;8.868;2023-03-22T06:24:56;2.10;;;1.90;;
19179;SDS011;9722;48.754;8.868;2023-03-22T06:28:16;3.73;;;1.80;;
19179;SDS011;9722;48.754;8.868;2023-03-22T06:31:36;3.13;;;2.00;;
19179;SDS011;9722;48.754;8.868;2023-03-22T06:34:57;2.73;;;2.20;;
19179;SDS011;9722;48.754;8.868;2023-03-22T06:38:17;2.30;;;2.10;;
19179;SDS011;9722;48.754;8.868;2023-03-22T06:41:38;3.77;;;2.20;;
19179;SDS011;9722;48.754;8.868;2023-03-22T06:44:58;2.40;;;1.70;;
19179;SDS011;9722;48.754;8.868;2023-03-22T06:48:20;2.17;;;1.97;;
19179;SDS011;9722;48.754;8.868;2023-03-22T06:51:40;2.67;;;1.97;;
19179;SDS011;9722;48.754;8.868;2023-03-22T06:55:00;1.97;;;1.87;;
19179;SDS011;9722;48.754;8.868;2023-03-22T06:58:21;2.17;;;1.90;;
19179;SDS011;9722;48.754;8.868;2023-03-22T07:01:42;2.70;;;1.90;;
19179;SDS011;9722;48.754;8.868;2023-03-22T07:05:02;2.50;;;2.30;;
19179;SDS011;9722;48.754;8.868;2023-03-22T07:08:23;2.70;;;2.03;;
19179;SDS011;9722;48.754;8.868;2023-03-22T07:11:43;3.93;;;1.97;;
19179;SDS011;9722;48.754;8.868;2023-03-22T07:15:04;3.87;;;1.60;;
19179;SDS011;9722;48.754;8.868;2023-03-22T07:18:25;1.83;;;1.70;;
19179;SDS011;9722;48.754;8.868;2023-03-22T07:21:47;2.83;;;1.87;;
19179;SDS011;9722;48.754;8.868;2023-03-22T07:25:07;2.30;;;1.50;;
19179;SDS011;9722;48.754;8.868;2023-03-22T07:28:28;1.93;;;1.80;;
19179;SDS011;9722;48.754;8.868;2023-03-22T07:31:49;2.23;;;1.60;;
19179;SDS011;9722;48.754;8.868;2023-03-22T07:35:09;1.50;;;1.40;;
19179;SDS011;9722;48.754;8.868;2023-03-22T07:38:30;1.63;;;1.33;;
19179;SDS011;9722;48.754;8.868;2023-03-22T07:41:51;2.37;;;1.03;;
19179;SDS011;9722;48.754;8.868;2023-03-22T07:45:11;1.77;;;0.90;;
19179;SDS011;9722;48.754;8.868;2023-03-22T07:48:32;1.70;;;1.10;;
19179;SDS011;9722;48.754;8.868;2023-03-22T07:51:53;1.37;;;0.93;;
19179;SDS011;9722;48.754;8.868;2023-03-22T07:55:13;2.37;;;1.10;;
19179;SDS011;9722;48.754;8.868;2023-03-22T07:58:34;2.43;;;0.77;;
19179;SDS011;9722;48.754;8.868;2023-03-22T08:01:55;1.80;;;0.80;;
19179;SDS011;9722;48.754;8.868;2023-03-22T08:05:15;2.00;;;0.90;;
19179;SDS011;9722;48.754;8.868;2023-03-22T08:08:36;0.73;;;0.73;;
19179;SDS011;9722;48.754;8.868;2023-03-22T08:11:57;0.80;;;0.70;;
19179;SDS011;9722;48.754;8.868;2023-03-22T08:15:17;0.80;;;0.80;;
19179;SDS011;9722;48.754;8.868;2023-03-22T08:18:38;2.10;;;0.93;;
19179;SDS011;9722;48.754;8.868;2023-03-22T08:21:59;1.30;;;0.87;;
19179;SDS011;9722;48.754;8.868;2023-03-22T08:25:20;0.60;;;0.60;;
19179;SDS011;9722;48.754;8.868;2023-03-22T08:28:42;2.27;;;0.87;;
19179;SDS011;9722;48.754;8.868;2023-03-22T08:32:03;1.37;;;0.70;;
19179;SDS011;9722;48.754;8.868;2023-03-22T08:35:24;0.80;;;0.67;;
19179;SDS011;9722;48.754;8.868;2023-03-22T08:38:45;0.83;;;0.70;;
19179;SDS011;9722;48.754;8.868;2023-03-22T08:42:05;2.17;;;1.00;;
19179;SDS011;9722;48.754;8.868;2023-03-22T08:45:26;1.73;;;0.60;;
19179;SDS011;9722;48.754;8.868;2023-03-22T08:48:47;1.07;;;0.70;;
19179;SDS011;9722;48.754;8.868;2023-03-22T08:52:09;0.90;;;0.70;;
19179;SDS011;9722;48.754;8.868;2023-03-22T08:55:30;0.70;;;0.70;;
19179;SDS011;9722;48.754;8.868;2023-03-22T08:58:51;1.67;;;0.73;;
19179;SDS011;9722;48.754;8.868;2023-03-22T09:02:11;2.20;;;0.60;;
19179;SDS011;9722;48.754;8.868;2023-03-22T09:05:32;0.50;;;0.50;;
19179;SDS011;9722;48.754;8.868;2023-03-22T09:08:53;1.17;;;0.70;;
19179;SDS011;9722;48.754;8.868;2023-03-22T09:12:14;0.70;;;0.70;;
19179;SDS011;9722;48.754;8.868;2023-03-22T09:15:35;0.73;;;0.53;;
19179;SDS011;9722;48.754;8.868;2023-03-22T09:18:55;2.20;;;0.80;;
19179;SDS011;9722;48.754;8.868;2023-03-22T09:22:16;0.93;;;0.67;;
19179;SDS011;9722;48.754;8.868;2023-03-22T09:25:36;1.13;;;0.77;;
19179;SDS011;9722;48.754;8.868;2023-03-22T09:28:57;0.60;;;0.60;;
19179;SDS011;9722;48.754;8.868;2023-03-22T09:32:17;0.77;;;0.60;;
19179;SDS011;9722;48.754;8.868;2023-03-22T09:35:39;1.00;;;0.80;;
19179;SDS011;9722;48.754;8.868;2023-03-22T09:39:01;1.70;;;0.53;;
19179;SDS011;9722;48.754;8.868;2023-03-22T09:42:39;0.50;;;0.50;;
19179;SDS011;9722;48.754;8.868;2023-03-22T09:46:04;0.43;;;0.43;;
19179;SDS011;9722;48.754;8.868;2023-03-22T09:49:33;0.53;;;0.50;;
19179;SDS011;9722;48.754;8.868;2023-03-22T09:52:59;1.00;;;0.50;;
19179;SDS011;9722;48.754;8.868;2023-03-22T09:56:21;0.50;;;0.50;;
19179;SDS011;9722;48.754;8.868;2023-03-22T10:11:03;0.30;;;0.23;;
19179;SDS011;9722;48.754;8.868;2023-03-22T10:14:40;0.40;;;0.40;;
19179;SDS011;9722;48.754;8.868;2023-03-22T10:18:40;0.30;;;0.30;;
19179;SDS011;9722;48.754;8.868;2023-03-22T10:22:06;0.30;;;0.30;;
19179;SDS011;9722;48.754;8.868;2023-03-22T10:25:35;0.87;;;0.40;;
19179;SDS011;9722;48.754;8.868;2023-03-22T10:29:21;1.00;;;0.40;;
19179;SDS011;9722;48.754;8.868;2023-03-22T10:33:02;0.20;;;0.20;;
19179;SDS011;9722;48.754;8.868;2023-03-22T10:36:25;0.60;;;0.30;;
19179;SDS011;9722;48.754;8.868;2023-03-22T10:39:51;0.30;;;0.30;;
19179;SDS011;9722;48.754;8.868;2023-03-22T10:46:57;0.77;;;0.40;;
19179;SDS011;9722;48.754;8.868;2023-03-22T10:50:28;0.57;;;0.30;;
19179;SDS011;9722;48.754;8.868;2023-03-22T10:53:53;0.40;;;0.40;;
19179;SDS011;9722;48.754;8.868;2023-03-22T10:57:15;0.40;;;0.40;;
19179;SDS011;9722;48.754;8.868;2023-03-22T11:00:36;0.40;;;0.30;;
19179;SDS011;9722;48.754;8.868;2023-03-22T11:04:11;0.20;;;0.20;;
19179;SDS011;9722;48.754;8.868;2023-03-22T11:07:37;0.40;;;0.40;;
19179;SDS011;9722;48.754;8.868;2023-03-22T11:11:04;0.70;;;0.50;;
19179;SDS011;9722;48.754;8.868;2023-03-22T11:14:28;0.73;;;0.50;;
19179;SDS011;9722;48.754;8.868;2023-03-22T11:17:53;0.57;;;0.30;;
19179;SDS011;9722;48.754;8.868;2023-03-22T11:21:17;0.70;;;0.40;;
19179;SDS011;9722;48.754;8.868;2023-03-22T11:24:43;0.40;;;0.40;;
19179;SDS011;9722;48.754;8.868;2023-03-22T11:28:48;0.50;;;0.50;;
19179;SDS011;9722;48.754;8.868;2023-03-22T11:31:59;0.70;;;0.40;;
19179;SDS011;9722;48.754;8.868;2023-03-22T11:35:21;0.53;;;0.40;;
19179;SDS011;9722;48.754;8.868;2023-03-22T11:38:45;0.40;;;0.40;;
19179;SDS011;9722;48.754;8.868;2023-03-22T11:42:06;0.80;;;0.43;;
19179;SDS011;9722;48.754;8.868;2023-03-22T11:45:34;0.90;;;0.50;;
19179;SDS011;9722;48.754;8.868;2023-03-22T11:49:01;0.40;;;0.40;;
19179;SDS011;9722;48.754;8.868;2023-03-22T11:52:31;0.40;;;0.40;;
19179;SDS011;9722;48.754;8.868;2023-03-22T11:55:52;0.67;;;0.40;;
19179;SDS011;9722;48.754;8.868;2023-03-22T12:02:45;0.40;;;0.40;;
19179;SDS011;9722;48.754;8.868;2023-03-22T12:06:43;0.77;;;0.50;;
19179;SDS011;9722;48.754;8.868;2023-03-22T12:10:05;0.53;;;0.50;;
19179;SDS011;9722;48.754;8.868;2023-03-22T12:17:12;0.40;;;0.40;;
19179;SDS011;9722;48.754;8.868;2023-03-22T12:20:52;0.73;;;0.40;;
19179;SDS011;9722;48.754;8.868;2023-03-22T12:24:23;0.47;;;0.47;;
19179;SDS011;9722;48.754;8.868;2023-03-22T12:27:47;0.93;;;0.50;;
19179;SDS011;9722;48.754;8.868;2023-03-22T12:31:14;0.37;;;0.37;;
19179;SDS011;9722;48.754;8.868;2023-03-22T12:34:41;0.77;;;0.33;;
19179;SDS011;9722;48.754;8.868;2023-03-22T12:38:48;0.50;;;0.43;;
19179;SDS011;9722;48.754;8.868;2023-03-22T12:45:45;1.10;;;0.40;;
19179;SDS011;9722;48.754;8.868;2023-03-22T12:56:05;0.30;;;0.30;;
19179;SDS011;9722;48.754;8.868;2023-03-22T12:59:48;1.63;;;0.50;;
19179;SDS011;9722;48.754;8.868;2023-03-22T13:10:36;0.50;;;0.43;;
19179;SDS011;9722;48.754;8.868;2023-03-22T13:13:47;0.60;;;0.40;;
19179;SDS011;9722;48.754;8.868;2023-03-22T13:17:09;0.33;;;0.33;;
19179;SDS011;9722;48.754;8.868;2023-03-22T13:20:31;0.50;;;0.40;;
19179;SDS011;9722;48.754;8.868;2023-03-22T13:23:54;0.57;;;0.57;;
19179;SDS011;9722;48.754;8.868;2023-03-22T13:31:19;0.60;;;0.60;;
19179;SDS011;9722;48.754;8.868;2023-03-22T13:35:01;1.23;;;0.60;;
19179;SDS011;9722;48.754;8.868;2023-03-22T13:38:23;0.47;;;0.40;;
19179;SDS011;9722;48.754;8.868;2023-03-22T13:41:46;0.50;;;0.50;;
19179;SDS011;9722;48.754;8.868;2023-03-22T13:45:26;1.07;;;0.50;;
19179;SDS011;9722;48.754;8.868;2023-03-22T13:48:56;0.40;;;0.40;;
19179;SDS011;9722;48.754;8.868;2023-03-22T13:52:37;0.80;;;0.60;;
19179;SDS011;9722;48.754;8.868;2023-03-22T13:56:04;0.50;;;0.50;;
19179;SDS011;9722;48.754;8.868;2023-03-22T14:02:46;0.60;;;0.50;;
19179;SDS011;9722;48.754;8.868;2023-03-22T14:06:18;0.60;;;0.40;;
19179;SDS011;9722;48.754;8.868;2023-03-22T14:09:43;0.37;;;0.37;;
19179;SDS011;9722;48.754;8.868;2023-03-22T14:16:35;0.67;;;0.67;;
19179;SDS011;9722;48.754;8.868;2023-03-22T14:20:01;0.70;;;0.60;;
19179;SDS011;9722;48.754;8.868;2023-03-22T14:23:26;0.57;;;0.50;;
19179;SDS011;9722;48.754;8.868;2023-03-22T14:27:18;0.80;;;0.50;;
19179;SDS011;9722;48.754;8.868;2023-03-22T14:30:39;0.53;;;0.50;;
19179;SDS011;9722;48.754;8.868;2023-03-22T14:34:03;2.20;;;0.40;;
19179;SDS011;9722;48.754;8.868;2023-03-22T14:37:26;0.60;;;0.50;;
19179;SDS011;9722;48.754;8.868;2023-03-22T14:40:47;0.60;;;0.60;;
19179;SDS011;9722;48.754;8.868;2023-03-22T14:44:09;0.60;;;0.60;;
19179;SDS011;9722;48.754;8.868;2023-03-22T14:47:32;0.43;;;0.43;;
19179;SDS011;9722;48.754;8.868;2023-03-22T14:51:01;0.93;;;0.70;;
19179;SDS011;9722;48.754;8.868;2023-03-22T14:54:25;0.73;;;0.60;;
19179;SDS011;9722;48.754;8.868;2023-03-22T14:57:49;1.83;;;0.60;;
19179;SDS011;9722;48.754;8.868;2023-03-22T15:01:20;0.70;;;0.50;;
19179;SDS011;9722;48.754;8.868;2023-03-22T15:04:48;0.57;;;0.57;;
19179;SDS011;9722;48.754;8.868;2023-03-22T15:08:11;2.23;;;0.70;;
19179;SDS011;9722;48.754;8.868;2023-03-22T15:11:44;1.07;;;0.67;;
19179;SDS011;9722;48.754;8.868;2023-03-22T15:15:06;1.03;;;0.80;;
19179;SDS011;9722;48.754;8.868;2023-03-22T15:18:29;0.60;;;0.60;;
19179;SDS011;9722;48.754;8.868;2023-03-22T15:22:01;0.73;;;0.67;;
19179;SDS011;9722;48.754;8.868;2023-03-22T15:25:28;1.00;;;0.90;;
19179;SDS011;9722;48.754;8.868;2023-03-22T15:28:52;0.90;;;0.70;;
19179;SDS011;9722;48.754;8.868;2023-03-22T15:32:17;0.63;;;0.60;;
19179;SDS011;9722;48.754;8.868;2023-03-22T15:35:40;0.63;;;0.57;;
19179;SDS011;9722;48.754;8.868;2023-03-22T15:39:03;0.87;;;0.60;;
19179;SDS011;9722;48.754;8.868;2023-03-22T15:42:37;0.70;;;0.60;;
19179;SDS011;9722;48.754;8.868;2023-03-22T15:46:05;0.87;;;0.70;;
19179;SDS011;9722;48.754;8.868;2023-03-22T15:49:43;0.73;;;0.73;;
19179;SDS011;9722;48.754;8.868;2023-03-22T15:53:05;2.10;;;0.80;;
19179;SDS011;9722;48.754;8.868;2023-03-22T15:56:44;0.63;;;0.63;;
19179;SDS011;9722;48.754;8.868;2023-03-22T16:00:22;0.93;;;0.80;;
19179;SDS011;9722;48.754;8.868;2023-03-22T16:03:53;0.97;;;0.80;;
19179;SDS011;9722;48.754;8.868;2023-03-22T16:07:17;1.47;;;1.00;;
19179;SDS011;9722;48.754;8.868;2023-03-22T16:10:39;1.77;;;1.30;;
19179;SDS011;9722;48.754;8.868;2023-03-22T16:14:02;1.30;;;0.90;;
19179;SDS011;9722;48.754;8.868;2023-03-22T16:17:24;1.03;;;0.90;;
19179;SDS011;9722;48.754;8.868;2023-03-22T16:20:44;0.90;;;0.90;;
19179;SDS011;9722;48.754;8.868;2023-03-22T16:24:05;0.63;;;0.63;;
19179;SDS011;9722;48.754;8.868;2023-03-22T16:27:26;0.80;;;0.80;;
19179;SDS011;9722;48.754;8.868;2023-03-22T16:30:47;1.43;;;1.20;;
19179;SDS011;9722;48.754;8.868;2023-03-22T16:34:08;1.50;;;0.97;;
19179;SDS011;9722;48.754;8.868;2023-03-22T16:37:30;2.57;;;0.70;;
19179;SDS011;9722;48.754;8.868;2023-03-22T16:40:53;0.90;;;0.80;;
19179;SDS011;9722;48.754;8.868;2023-03-22T16:44:15;1.00;;;0.70;;
19179;SDS011;9722;48.754;8.868;2023-03-22T16:47:36;1.00;;;0.87;;
19179;SDS011;9722;48.754;8.868;2023-03-22T16:50:58;0.83;;;0.83;;
19179;SDS011;9722;48.754;8.868;2023-03-22T16:54:19;0.60;;;0.60;;
19179;SDS011;9722;48.754;8.868;2023-03-22T16:57:39;1.03;;;0.90;;
19179;SDS011;9722;48.754;8.868;2023-03-22T17:01:00;1.83;;;0.90;;
19179;SDS011;9722;48.754;8.868;2023-03-22T17:04:20;0.77;;;0.70;;
19179;SDS011;9722;48.754;8.868;2023-03-22T17:07:41;1.27;;;0.80;;
19179;SDS011;9722;48.754;8.868;2023-03-22T17:11:02;0.70;;;0.70;;
19179;SDS011;9722;48.754;8.868;2023-03-22T17:14:23;2.83;;;0.73;;
19179;SDS011;9722;48.754;8.868;2023-03-22T17:17:44;0.90;;;0.70;;
19179;SDS011;9722;48.754;8.868;2023-03-22T17:21:05;5.47;;;4.87;;
19179;SDS011;9722;48.754;8.868;2023-03-22T17:24:25;5.67;;;4.83;;
19179;SDS011;9722;48.754;8.868;2023-03-22T17:27:46;3.97;;;2.90;;
19179;SDS011;9722;48.754;8.868;2023-03-22T17:31:07;2.37;;;2.17;;
19179;SDS011;9722;48.754;8.868;2023-03-22T17:34:29;1.70;;;1.60;;
19179;SDS011;9722;48.754;8.868;2023-03-22T17:37:50;1.67;;;1.30;;
19179;SDS011;9722;48.754;8.868;2023-03-22T17:41:11;2.43;;;0.90;;
19179;SDS011;9722;48.754;8.868;2023-03-22T17:44:33;1.70;;;1.10;;
19179;SDS011;9722;48.754;8.868;2023-03-22T17:47:54;1.73;;;0.93;;
19179;SDS011;9722;48.754;8.868;2023-03-22T17:51:14;1.57;;;1.47;;
19179;SDS011;9722;48.754;8.868;2023-03-22T17:54:35;2.83;;;1.60;;
19179;SDS011;9722;48.754;8.868;2023-03-22T17:57:56;4.57;;;1.40;;
19179;SDS011;9722;48.754;8.868;2023-03-22T18:01:17;4.60;;;3.60;;
19179;SDS011;9722;48.754;8.868;2023-03-22T18:04:37;1.90;;;1.80;;
19179;SDS011;9722;48.754;8.868;2023-03-22T18:07:58;1.80;;;1.57;;
19179;SDS011;9722;48.754;8.868;2023-03-22T18:11:20;1.50;;;1.40;;
19179;SDS011;9722;48.754;8.868;2023-03-22T18:14:40;3.23;;;1.60;;
19179;SDS011;9722;48.754;8.868;2023-03-22T18:18:01;3.03;;;2.00;;
19179;SDS011;9722;48.754;8.868;2023-03-22T18:21:23;1.83;;;1.73;;
19179;SDS011;9722;48.754;8.868;2023-03-22T18:24:43;2.43;;;1.40;;
19179;SDS011;9722;48.754;8.868;2023-03-22T18:28:04;2.53;;;1.77;;
19179;SDS011;9722;48.754;8.868;2023-03-22T18:31:25;3.00;;;2.80;;
19179;SDS011;9722;48.754;8.868;2023-03-22T18:34:46;2.90;;;2.70;;
19179;SDS011;9722;48.754;8.868;2023-03-22T18:38:06;5.07;;;2.27;;
19179;SDS011;9722;48.754;8.868;2023-03-22T18:41:28;3.87;;;2.83;;
19179;SDS011;9722;48.754;8.868;2023-03-22T18:44:49;2.37;;;2.17;;
19179;SDS011;9722;48.754;8.868;2023-03-22T18:48:10;3.53;;;2.90;;
19179;SDS011;9722;48.754;8.868;2023-03-22T18:51:31;3.87;;;3.50;;
19179;SDS011;9722;48.754;8.868;2023-03-22T18:54:51;2.17;;;1.97;;
19179;SDS011;9722;48.754;8.868;2023-03-22T18:58:12;1.70;;;1.57;;
19179;SDS011;9722;48.754;8.868;2023-03-22T19:01:32;3.43;;;1.20;;
19179;SDS011;9722;48.754;8.868;2023-03-22T19:04:53;1.20;;;1.10;;
19179;SDS011;9722;48.754;8.868;2023-03-22T19:08:13;1.97;;;1.33;;
19179;SDS011;9722;48.754;8.868;2023-03-22T19:11:34;4.33;;;3.67;;
19179;SDS011;9722;48.754;8.868;2023-03-22T19:14:54;7.90;;;6.50;;
19179;SDS011;9722;48.754;8.868;2023-03-22T19:18:15;9.30;;;7.83;;
19179;SDS011;9722;48.754;8.868;2023-03-22T19:21:36;7.60;;;6.63;;
19179;SDS011;9722;48.754;8.868;2023-03-22T19:24:57;3.80;;;3.50;;
19179;SDS011;9722;48.754;8.868;2023-03-22T19:28:17;13.77;;;12.43;;
19179;SDS011;9722;48.754;8.868;2023-03-22T19:31:38;5.63;;;5.33;;
19179;SDS011;9722;48.754;8.868;2023-03-22T19:34:58;2.80;;;2.57;;
19179;SDS011;9722;48.754;8.868;2023-03-22T19:38:19;3.10;;;2.90;;
19179;SDS011;9722;48.754;8.868;2023-03-22T19:41:40;3.03;;;2.27;;
19179;SDS011;9722;48.754;8.868;2023-03-22T19:45:00;2.40;;;2.20;;
19179;SDS011;9722;48.754;8.868;2023-03-22T19:48:23;2.73;;;2.00;;
19179;SDS011;9722;48.754;8.868;2023-03-22T19:51:44;1.80;;;1.70;;
19179;SDS011;9722;48.754;8.868;2023-03-22T19:55:05;3.60;;;3.37;;
19179;SDS011;9722;48.754;8.868;2023-03-22T19:58:26;2.40;;;2.03;;
19179;SDS011;9722;48.754;8.868;2023-03-22T20:01:46;1.50;;;1.40;;
19179;SDS011;9722;48.754;8.868;2023-03-22T20:05:08;2.17;;;2.00;;
19179;SDS011;9722;48.754;8.868;2023-03-22T20:08:28;6.00;;;5.60;;
19179;SDS011;9722;48.754;8.868;2023-03-22T20:11:49;3.60;;;3.30;;
19179;SDS011;9722;48.754;8.868;2023-03-22T20:15:10;3.53;;;3.03;;
19179;SDS011;9722;48.754;8.868;2023-03-22T20:18:31;3.57;;;3.27;;
19179;SDS011;9722;48.754;8.868;2023-03-22T20:21:51;2.10;;;1.90;;
19179;SDS011;9722;48.754;8.868;2023-03-22T20:25:12;3.00;;;2.40;;
19179;SDS011;9722;48.754;8.868;2023-03-22T20:28:32;3.83;;;3.53;;
19179;SDS011;9722;48.754;8.868;2023-03-22T20:31:53;4.17;;;3.27;;
19179;SDS011;9722;48.754;8.868;2023-03-22T20:35:14;4.60;;;3.67;;
19179;SDS011;9722;48.754;8.868;2023-03-22T20:38:35;4.80;;;4.40;;
19179;SDS011;9722;48.754;8.868;2023-03-22T20:41:57;4.40;;;4.10;;
19179;SDS011;9722;48.754;8.868;2023-03-22T20:45:17;3.37;;;2.83;;
19179;SDS011;9722;48.754;8.868;2023-03-22T20:48:38;3.27;;;2.43;;
19179;SDS011;9722;48.754;8.868;2023-03-22T20:51:59;1.93;;;1.83;;
19179;SDS011;9722;48.754;8.868;2023-03-22T20:55:20;2.00;;;1.80;;
19179;SDS011;9722;48.754;8.868;2023-03-22T20:58:40;2.23;;;1.90;;
19179;SDS011;9722;48.754;8.868;2023-03-22T21:02:01;1.63;;;1.53;;
19179;SDS011;9722;48.754;8.868;2023-03-22T21:05:22;2.30;;;1.77;;
19179;SDS011;9722;48.754;8.868;2023-03-22T21:08:42;2.53;;;2.33;;
19179;SDS011;9722;48.754;8.868;2023-03-22T21:12:03;3.87;;;1.97;;
19179;SDS011;9722;48.754;8.868;2023-03-22T21:15:24;2.63;;;2.20;;
19179;SDS011;9722;48.754;8.868;2023-03-22T21:18:44;2.40;;;1.93;;
19179;SDS011;9722;48.754;8.868;2023-03-22T21:22:05;2.80;;;2.43;;
19179;SDS011;9722;48.754;8.868;2023-03-22T21:25:25;4.70;;;2.10;;
19179;SDS011;9722;48.754;8.868;2023-03-22T21:28:46;2.20;;;1.83;;
19179;SDS011;9722;48.754;8.868;2023-03-22T21:32:06;1.97;;;1.87;;
19179;SDS011;9722;48.754;8.868;2023-03-22T21:35:27;2.03;;;1.83;;
19179;SDS011;9722;48.754;8.868;2023-03-22T21:38:47;1.93;;;1.80;;
19179;SDS011;9722;48.754;8.868;2023-03-22T21:42:14;3.83;;;2.10;;
19179;SDS011;9722;48.754;8.868;2023-03-22T21:45:34;4.20;;;2.20;;
19179;SDS011;9722;48.754;8.868;2023-03-22T21:48:55;4.07;;;2.10;;
19179;SDS011;9722;48.754;8.868;2023-03-22T21:52:20;2.50;;;2.30;;
19179;SDS011;9722;48.754;8.868;2023-03-22T21:55:42;2.00;;;1.90;;
19179;SDS011;9722;48.754;8.868;2023-03-22T21:59:04;1.90;;;1.80;;
19179;SDS011;9722;48.754;8.868;2023-03-22T22:02:25;2.47;;;1.97;;